| time (UTC) | temp F | wind direction | speed knots | gust knots | rain 1hr in | rain 24hr in | rain mn in | humidity % | barometer mb |
| 20260510152243 | 51 | 36 | 0.0 | 6.1 | 0.00 | 0.36 | 0.11 | 92 | 1015.9 |
| 20260510152150 | 51 | 36 | 0.0 | 6.1 | 0.00 | 0.36 | 0.11 | 92 | 1015.9 |
| 20260510150742 | 52 | 20 | 0.0 | 7.8 | 0.00 | 0.36 | 0.11 | 94 | 1015.8 |
| 20260510145242 | 51 | 38 | 2.6 | 5.2 | 0.00 | 0.36 | 0.11 | 94 | 1015.3 |
| 20260510143742 | 51 | 36 | 0.0 | 1.7 | 0.00 | 0.36 | 0.11 | 94 | 1015.4 |
| 20260510143731 | 51 | 18 | 0.0 | 1.7 | 0.00 | 0.36 | 0.11 | 94 | 1015.4 |
| 20260510142243 | 51 | 6 | 0.0 | 7.8 | 0.00 | 0.36 | 0.11 | 95 | 1015.3 |
| 20260510142140 | 51 | 6 | 0.0 | 7.8 | 0.00 | 0.36 | 0.11 | 95 | 1015.3 |
| 20260510140743 | 51 | 31 | 2.6 | 7.0 | 0.00 | 0.36 | 0.11 | 95 | 1015.2 |
| 20260510140644 | 51 | 31 | 2.6 | 7.0 | 0.00 | 0.36 | 0.11 | 95 | 1015.2 |
| 20260510135323 | 52 | 51 | 0.0 | 4.3 | 0.00 | 0.36 | 0.11 | 96 | 1014.8 |
| 20260510135244 | 52 | 25 | 0.9 | 3.5 | 0.00 | 0.36 | 0.11 | 96 | 1014.8 |
| 20260510135230 | 52 | 51 | 0.0 | 4.3 | 0.00 | 0.36 | 0.11 | 96 | 1014.8 |
| 20260510135141 | 52 | 51 | 0.0 | 4.3 | 0.00 | 0.36 | 0.11 | 96 | 1014.8 |
| 20260510133742 | 51 | 31 | 0.0 | 7.0 | 0.01 | 0.36 | 0.11 | 95 | 1014.7 |
| 20260510133644 | 51 | 31 | 0.0 | 7.0 | 0.01 | 0.36 | 0.11 | 95 | 1014.7 |
| 20260510132244 | 52 | 340 | 1.7 | 0.0 | 0.02 | 0.36 | 0.11 | 96 | 1014.7 |
| 20260510130906 | 51 | 350 | 0.0 | 1.7 | 0.02 | 0.36 | 0.11 | 96 | 1014.2 |
| 20260510130743 | 51 | 350 | 0.0 | 1.7 | 0.02 | 0.36 | 0.11 | 96 | 1014.2 |
| 20260510130643 | 51 | 350 | 0.0 | 1.7 | 0.02 | 0.36 | 0.11 | 96 | 1014.2 |
| 20260510125244 | 51 | 27 | 0.0 | 5.2 | 0.02 | 0.36 | 0.11 | 96 | 1014.2 |
| 20260510123743 | 51 | 5 | 0.0 | 0.0 | 0.01 | 0.35 | 0.10 | 96 | 1014.0 |
| 20260510122244 | 52 | 26 | 0.0 | 0.0 | 0.01 | 0.35 | 0.10 | 96 | 1013.9 |
| 20260510120906 | 52 | 335 | 0.0 | 0.0 | 0.00 | 0.37 | 0.09 | 96 | 1013.1 |
| 20260510120744 | 52 | 312 | 0.0 | 0.0 | 0.00 | 0.37 | 0.09 | 96 | 1013.1 |
| 20260510115243 | 52 | 325 | 0.0 | 0.0 | 0.00 | 0.37 | 0.09 | 96 | 1012.9 |
| 20260510115213 | 52 | 325 | 0.0 | 0.0 | 0.00 | 0.37 | 0.09 | 96 | 1012.9 |
| 20260510115140 | 52 | 325 | 0.0 | 0.0 | 0.00 | 0.37 | 0.09 | 96 | 1012.9 |
| 20260510112243 | 51 | 17 | 0.0 | 0.0 | 0.00 | 0.38 | 0.09 | 96 | 1012.2 |
| 20260510111017 | 50 | 17 | 0.0 | 0.0 | 0.00 | 0.38 | 0.09 | 96 | 1012.1 |
| 20260510110743 | 50 | 17 | 0.0 | 0.0 | 0.00 | 0.38 | 0.09 | 96 | 1012.1 |
| 20260510110643 | 50 | 17 | 0.0 | 0.0 | 0.00 | 0.38 | 0.09 | 96 | 1012.1 |
| 20260510105244 | 49 | 19 | 0.0 | 0.0 | 0.00 | 0.38 | 0.09 | 96 | 1011.6 |
| 20260510103744 | 49 | 19 | 0.0 | 0.0 | 0.00 | 0.39 | 0.09 | 96 | 1011.4 |
| 20260510102504 | 49 | 18 | 0.0 | 0.0 | 0.00 | 0.39 | 0.09 | 95 | 1011.1 |
| 20260510102243 | 49 | 18 | 0.0 | 0.0 | 0.00 | 0.39 | 0.09 | 95 | 1011.1 |
| 20260510102142 | 49 | 18 | 0.0 | 0.0 | 0.00 | 0.39 | 0.09 | 95 | 1011.1 |
| 20260510101006 | 50 | 18 | 0.0 | 0.0 | 0.00 | 0.41 | 0.09 | 95 | 1010.9 |
| 20260510100744 | 50 | 18 | 0.0 | 0.0 | 0.00 | 0.41 | 0.09 | 95 | 1010.9 |
| 20260510100643 | 50 | 18 | 0.0 | 0.0 | 0.00 | 0.41 | 0.09 | 95 | 1010.9 |
| 20260510095243 | 50 | 18 | 0.0 | 0.0 | 0.00 | 0.42 | 0.09 | 95 | 1010.8 |
| 20260510093742 | 51 | 18 | 0.0 | 0.0 | 0.00 | 0.42 | 0.09 | 95 | 1010.4 |
| 20260510092244 | 52 | 18 | 0.0 | 0.0 | 0.00 | 0.42 | 0.09 | 96 | 1010.1 |
| 20260510090742 | 52 | 325 | 0.0 | 0.0 | 0.00 | 0.42 | 0.09 | 96 | 1010.0 |
| 20260510085242 | 51 | 231 | 0.0 | 0.9 | 0.00 | 0.43 | 0.09 | 95 | 1009.8 |
| 20260510083742 | 51 | 230 | 0.0 | 0.0 | 0.00 | 0.43 | 0.09 | 95 | 1009.7 |
| 20260510082506 | 51 | 210 | 0.0 | 0.0 | 0.00 | 0.43 | 0.09 | 95 | 1009.9 |
| 20260510082243 | 51 | 210 | 0.0 | 0.0 | 0.00 | 0.43 | 0.09 | 95 | 1009.9 |
| 20260510082158 | 51 | 210 | 0.0 | 0.0 | 0.00 | 0.43 | 0.09 | 95 | 1009.9 |
| 20260510080742 | 51 | 210 | 0.0 | 0.0 | 0.00 | 0.43 | 0.09 | 95 | 1009.7 |
| 20260510075506 | 52 | 210 | 0.0 | 0.0 | 0.00 | 0.43 | 0.09 | 95 | 1009.4 |
| 20260510075242 | 52 | 210 | 0.0 | 0.0 | 0.00 | 0.43 | 0.09 | 95 | 1009.4 |
| 20260510075158 | 52 | 210 | 0.0 | 0.0 | 0.00 | 0.43 | 0.09 | 95 | 1009.4 |
| 20260510074008 | 52 | 210 | 0.0 | 0.0 | 0.01 | 0.43 | 0.09 | 95 | 1009.4 |
| 20260510073743 | 52 | 210 | 0.0 | 0.0 | 0.01 | 0.43 | 0.09 | 95 | 1009.4 |
| 20260510072505 | 53 | 210 | 0.0 | 0.0 | 0.02 | 0.43 | 0.09 | 95 | 1009.4 |
| 20260510072242 | 53 | 210 | 0.0 | 0.0 | 0.02 | 0.43 | 0.09 | 95 | 1009.4 |
| 20260510070742 | 53 | 210 | 0.0 | 0.0 | 0.03 | 0.43 | 0.09 | 95 | 1009.3 |
| 20260510065506 | 53 | 202 | 0.0 | 0.0 | 0.03 | 0.43 | 0.09 | 95 | 1009.4 |
| 20260510065243 | 53 | 202 | 0.0 | 0.0 | 0.03 | 0.43 | 0.09 | 95 | 1009.4 |
| 20260510065156 | 53 | 202 | 0.0 | 0.0 | 0.03 | 0.43 | 0.09 | 95 | 1009.4 |
| 20260510063744 | 54 | 202 | 0.0 | 0.9 | 0.02 | 0.42 | 0.08 | 95 | 1009.8 |
| 20260510062505 | 54 | 260 | 0.0 | 0.0 | 0.01 | 0.41 | 0.07 | 95 | 1010.5 |
| 20260510062242 | 54 | 260 | 0.0 | 0.0 | 0.01 | 0.41 | 0.07 | 95 | 1010.5 |
| 20260510062155 | 54 | 260 | 0.0 | 0.0 | 0.01 | 0.41 | 0.07 | 95 | 1010.5 |
| 20260510060742 | 53 | 63 | 0.0 | 0.0 | 0.00 | 0.40 | 0.06 | 95 | 1009.9 |
| 20260510055506 | 53 | 80 | 0.0 | 0.0 | 0.00 | 0.40 | 0.06 | 94 | 1009.8 |
| 20260510055243 | 53 | 80 | 0.0 | 0.0 | 0.00 | 0.40 | 0.06 | 94 | 1009.8 |
| 20260510053742 | 54 | 80 | 0.0 | 0.0 | 0.00 | 0.40 | 0.06 | 94 | 1009.9 |
| 20260510052244 | 54 | 80 | 0.0 | 1.7 | 0.01 | 0.40 | 0.06 | 95 | 1010.1 |
| 20260510052156 | 54 | 80 | 0.0 | 5.2 | 0.02 | 0.40 | 0.06 | 95 | 1010.1 |
| 20260510050743 | 54 | 25 | 0.0 | 0.0 | 0.06 | 0.40 | 0.06 | 94 | 1009.7 |
| 20260510045242 | 54 | 146 | 0.0 | 7.8 | 0.06 | 0.40 | 0.06 | 95 | 1009.7 |
| 20260510045158 | 54 | 146 | 0.0 | 7.8 | 0.06 | 0.40 | 0.06 | 95 | 1009.7 |
| 20260510043754 | 55 | 29 | 0.0 | 4.3 | 0.06 | 0.40 | 0.06 | 94 | 1009.7 |
| 20260510043743 | 55 | 29 | 0.0 | 4.3 | 0.06 | 0.40 | 0.06 | 94 | 1009.7 |
| 20260510042244 | 55 | 237 | 0.0 | 0.0 | 0.04 | 0.38 | 0.04 | 94 | 1009.3 |
| 20260510042157 | 55 | 237 | 0.0 | 0.0 | 0.04 | 0.38 | 0.04 | 94 | 1009.3 |
| 20260510040744 | 55 | 237 | 0.0 | 0.0 | 0.00 | 0.34 | 0.00 | 94 | 1009.9 |
| 20260510035242 | 54 | 237 | 0.0 | 0.0 | 0.00 | 0.34 | 0.34 | 94 | 1009.3 |
| 20260510035158 | 54 | 236 | 0.0 | 0.0 | 0.01 | 0.34 | 0.34 | 94 | 1009.3 |
| 20260510033744 | 54 | 255 | 0.0 | 0.0 | 0.01 | 0.34 | 0.34 | 93 | 1009.4 |
| 20260510033741 | 54 | 255 | 0.0 | 0.0 | 0.01 | 0.34 | 0.34 | 93 | 1009.4 |
| 20260510032243 | 54 | 338 | 0.0 | 0.0 | 0.10 | 0.34 | 0.34 | 92 | 1009.4 |
| 20260510032157 | 54 | 338 | 0.0 | 0.0 | 0.10 | 0.34 | 0.34 | 92 | 1009.4 |
| 20260510030743 | 54 | 340 | 0.0 | 0.0 | 0.22 | 0.34 | 0.34 | 92 | 1009.5 |
| 20260510025244 | 55 | 340 | 0.0 | 0.0 | 0.25 | 0.34 | 0.34 | 91 | 1009.8 |
| 20260510025157 | 55 | 340 | 0.0 | 0.0 | 0.24 | 0.33 | 0.33 | 91 | 1009.8 |
| 20260510023744 | 55 | 339 | 0.0 | 0.9 | 0.24 | 0.33 | 0.33 | 91 | 1010.2 |
| 20260510022243 | 56 | 339 | 0.0 | 8.7 | 0.15 | 0.25 | 0.24 | 89 | 1010.5 |
| 20260510022201 | 56 | 339 | 0.0 | 8.7 | 0.15 | 0.25 | 0.24 | 89 | 1010.5 |
| 20260510020744 | 57 | 315 | 3.5 | 20.0 | 0.03 | 0.13 | 0.12 | 85 | 1009.3 |
| 20260510015244 | 62 | 352 | 1.7 | 12.2 | 0.00 | 0.10 | 0.09 | 71 | 1008.9 |
| 20260510013742 | 62 | 223 | 2.6 | 7.0 | 0.00 | 0.11 | 0.09 | 69 | 1007.7 |
| 20260510012244 | 62 | 242 | 2.6 | 6.1 | 0.00 | 0.11 | 0.09 | 68 | 1007.2 |
| 20260510010744 | 62 | 232 | 0.0 | 7.8 | 0.00 | 0.12 | 0.09 | 67 | 1007.2 |
| 20260510010729 | 62 | 232 | 0.0 | 7.8 | 0.00 | 0.12 | 0.09 | 67 | 1007.2 |
| 20260510005243 | 62 | 232 | 0.0 | 2.6 | 0.00 | 0.12 | 0.09 | 66 | 1007.2 |
| 20260510005202 | 62 | 232 | 0.0 | 2.6 | 0.00 | 0.12 | 0.09 | 66 | 1007.2 |
| 20260510003744 | 63 | 233 | 0.0 | 6.1 | 0.00 | 0.12 | 0.09 | 65 | 1007.2 |
| 20260510002243 | 63 | 220 | 0.9 | 7.0 | 0.00 | 0.12 | 0.09 | 64 | 1007.2 |
| 20260510000744 | 64 | 246 | 0.0 | 12.2 | 0.00 | 0.12 | 0.09 | 62 | 1006.9 |
| 20260509235243 | 65 | 212 | 0.9 | 10.4 | 0.00 | 0.12 | 0.09 | 60 | 1006.7 |
| 20260509233743 | 66 | 215 | 1.7 | 7.0 | 0.00 | 0.12 | 0.09 | 60 | 1006.7 |
| 20260509232242 | 66 | 252 | 1.7 | 11.3 | 0.00 | 0.12 | 0.09 | 58 | 1006.7 |
| 20260509230743 | 67 | 206 | 4.3 | 11.3 | 0.00 | 0.12 | 0.09 | 58 | 1006.8 |
| 20260509225242 | 67 | 270 | 9.6 | 11.3 | 0.00 | 0.12 | 0.09 | 57 | 1006.8 |
| 20260509223743 | 67 | 243 | 2.6 | 15.6 | 0.00 | 0.12 | 0.09 | 59 | 1006.8 |
| 20260509222254 | 68 | 233 | 1.7 | 10.4 | 0.00 | 0.12 | 0.09 | 57 | 1006.7 |
| 20260509220754 | 68 | 238 | 3.5 | 10.4 | 0.00 | 0.12 | 0.09 | 56 | 1006.7 |
| 20260509215255 | 68 | 246 | 4.3 | 14.8 | 0.00 | 0.12 | 0.09 | 55 | 1006.8 |
| 20260509213755 | 68 | 214 | 1.7 | 10.4 | 0.00 | 0.12 | 0.09 | 59 | 1007.1 |
| 20260509212255 | 68 | 220 | 2.6 | 10.4 | 0.00 | 0.12 | 0.09 | 58 | 1007.1 |
| 20260509210755 | 67 | 216 | 9.6 | 14.8 | 0.00 | 0.12 | 0.09 | 60 | 1007.0 |
| 20260509205256 | 68 | 198 | 4.3 | 9.6 | 0.00 | 0.12 | 0.09 | 57 | 1007.3 |
| 20260509203755 | 67 | 187 | 0.9 | 14.8 | 0.00 | 0.12 | 0.09 | 63 | 1007.6 |
| 20260509202254 | 66 | 199 | 4.3 | 8.7 | 0.00 | 0.12 | 0.09 | 63 | 1007.5 |
| 20260509200756 | 66 | 194 | 8.7 | 15.6 | 0.00 | 0.12 | 0.09 | 65 | 1007.8 |
| 20260509195255 | 66 | 242 | 0.0 | 12.2 | 0.00 | 0.12 | 0.09 | 65 | 1008.0 |
| 20260509193756 | 65 | 265 | 6.1 | 15.6 | 0.00 | 0.12 | 0.09 | 66 | 1008.3 |
| 20260509192255 | 65 | 285 | 5.2 | 14.8 | 0.00 | 0.12 | 0.09 | 65 | 1008.4 |
| 20260509190756 | 63 | 243 | 3.5 | 16.5 | 0.00 | 0.12 | 0.09 | 72 | 1008.5 |
| 20260509185255 | 64 | 253 | 1.7 | 13.9 | 0.00 | 0.12 | 0.09 | 71 | 1008.5 |
| 20260509183756 | 62 | 210 | 3.5 | 8.7 | 0.00 | 0.12 | 0.09 | 74 | 1009.0 |
| 20260509182255 | 62 | 186 | 2.6 | 10.4 | 0.00 | 0.12 | 0.09 | 74 | 1009.0 |
| 20260509180755 | 62 | 229 | 8.7 | 13.0 | 0.00 | 0.12 | 0.09 | 73 | 1009.0 |
| 20260509175255 | 62 | 202 | 3.5 | 5.2 | 0.00 | 0.12 | 0.09 | 77 | 1009.1 |
| 20260509175205 | 61 | 275 | 6.1 | 7.8 | 0.00 | 0.12 | 0.09 | 78 | 1009.1 |
| 20260509173755 | 60 | 199 | 4.3 | 9.6 | 0.00 | 0.12 | 0.09 | 79 | 1009.1 |
| 20260509172255 | 59 | 254 | 4.3 | 8.7 | 0.00 | 0.12 | 0.09 | 81 | 1009.1 |
| 20260509170755 | 59 | 180 | 9.6 | 7.8 | 0.00 | 0.12 | 0.09 | 80 | 1009.0 |
| 20260509165256 | 58 | 227 | 2.6 | 8.7 | 0.00 | 0.12 | 0.09 | 82 | 1009.0 |
| 20260509163754 | 58 | 192 | 1.7 | 7.0 | 0.00 | 0.12 | 0.09 | 83 | 1009.0 |
| 20260509162426 | 58 | 230 | 3.5 | 10.4 | 0.00 | 0.12 | 0.09 | 83 | 1008.9 |
| 20260509162254 | 58 | 230 | 3.5 | 10.4 | 0.00 | 0.12 | 0.09 | 83 | 1008.9 |
| 20260509160754 | 58 | 231 | 1.7 | 8.7 | 0.00 | 0.12 | 0.09 | 85 | 1008.6 |
| 20260509155256 | 57 | 204 | 2.6 | 7.0 | 0.00 | 0.12 | 0.09 | 87 | 1008.5 |
| 20260509153754 | 56 | 221 | 1.7 | 9.6 | 0.00 | 0.12 | 0.09 | 87 | 1008.5 |